sensor_id;sensor_type;location;lat;lon;timestamp;P1;durP1;ratioP1;P2;durP2;ratioP2
51854;SDS011;37895;53.240;6.572;2024-03-02T00:01:14;5.32;;;4.82;;
51854;SDS011;37895;53.240;6.572;2024-03-02T00:03:40;5.35;;;4.85;;
51854;SDS011;37895;53.240;6.572;2024-03-02T00:06:08;6.38;;;5.05;;
51854;SDS011;37895;53.240;6.572;2024-03-02T00:08:34;5.68;;;5.18;;
51854;SDS011;37895;53.240;6.572;2024-03-02T00:11:00;5.78;;;5.28;;
51854;SDS011;37895;53.240;6.572;2024-03-02T00:13:28;5.55;;;5.00;;
51854;SDS011;37895;53.240;6.572;2024-03-02T00:15:55;5.75;;;5.25;;
51854;SDS011;37895;53.240;6.572;2024-03-02T00:20:58;6.07;;;5.47;;
51854;SDS011;37895;53.240;6.572;2024-03-02T00:23:29;5.72;;;5.22;;
51854;SDS011;37895;53.240;6.572;2024-03-02T00:25:56;6.22;;;5.47;;
51854;SDS011;37895;53.240;6.572;2024-03-02T00:30:56;7.63;;;5.85;;
51854;SDS011;37895;53.240;6.572;2024-03-02T00:33:50;7.28;;;5.68;;
51854;SDS011;37895;53.240;6.572;2024-03-02T00:36:17;5.53;;;5.00;;
51854;SDS011;37895;53.240;6.572;2024-03-02T00:38:51;6.30;;;5.60;;
51854;SDS011;37895;53.240;6.572;2024-03-02T00:41:22;5.82;;;5.25;;
51854;SDS011;37895;53.240;6.572;2024-03-02T00:44:01;6.03;;;5.53;;
51854;SDS011;37895;53.240;6.572;2024-03-02T00:46:38;5.55;;;5.05;;
51854;SDS011;37895;53.240;6.572;2024-03-02T00:49:05;6.75;;;5.68;;
51854;SDS011;37895;53.240;6.572;2024-03-02T00:51:47;6.22;;;5.70;;
51854;SDS011;37895;53.240;6.572;2024-03-02T00:54:14;7.68;;;6.57;;
51854;SDS011;37895;53.240;6.572;2024-03-02T00:59:06;6.35;;;5.80;;
51854;SDS011;37895;53.240;6.572;2024-03-02T01:01:33;6.63;;;5.78;;
51854;SDS011;37895;53.240;6.572;2024-03-02T01:03:59;6.38;;;5.70;;
51854;SDS011;37895;53.240;6.572;2024-03-02T01:06:25;6.70;;;6.10;;
51854;SDS011;37895;53.240;6.572;2024-03-02T01:08:50;6.85;;;5.63;;
51854;SDS011;37895;53.240;6.572;2024-03-02T01:11:16;6.65;;;6.05;;
51854;SDS011;37895;53.240;6.572;2024-03-02T01:13:43;6.35;;;5.75;;
51854;SDS011;37895;53.240;6.572;2024-03-02T01:16:09;8.85;;;6.32;;
51854;SDS011;37895;53.240;6.572;2024-03-02T01:18:35;6.15;;;5.40;;
51854;SDS011;37895;53.240;6.572;2024-03-02T01:21:01;6.43;;;5.82;;
51854;SDS011;37895;53.240;6.572;2024-03-02T01:23:26;7.40;;;6.63;;
51854;SDS011;37895;53.240;6.572;2024-03-02T01:25:52;7.65;;;6.63;;
51854;SDS011;37895;53.240;6.572;2024-03-02T01:28:18;6.70;;;6.10;;
51854;SDS011;37895;53.240;6.572;2024-03-02T01:30:45;6.93;;;5.85;;
51854;SDS011;37895;53.240;6.572;2024-03-02T01:33:11;8.02;;;6.65;;
51854;SDS011;37895;53.240;6.572;2024-03-02T01:35:37;7.28;;;6.68;;
51854;SDS011;37895;53.240;6.572;2024-03-02T01:38:02;7.03;;;6.32;;
51854;SDS011;37895;53.240;6.572;2024-03-02T01:40:31;6.40;;;5.80;;
51854;SDS011;37895;53.240;6.572;2024-03-02T01:42:57;8.90;;;6.30;;
51854;SDS011;37895;53.240;6.572;2024-03-02T01:45:23;6.82;;;6.22;;
51854;SDS011;37895;53.240;6.572;2024-03-02T01:47:49;6.88;;;6.20;;
51854;SDS011;37895;53.240;6.572;2024-03-02T01:50:15;6.53;;;5.93;;
51854;SDS011;37895;53.240;6.572;2024-03-02T01:52:42;6.90;;;6.15;;
51854;SDS011;37895;53.240;6.572;2024-03-02T01:55:09;6.45;;;5.85;;
51854;SDS011;37895;53.240;6.572;2024-03-02T01:57:34;7.03;;;6.28;;
51854;SDS011;37895;53.240;6.572;2024-03-02T02:00:00;6.90;;;6.28;;
51854;SDS011;37895;53.240;6.572;2024-03-02T02:02:26;7.25;;;6.18;;
51854;SDS011;37895;53.240;6.572;2024-03-02T02:04:52;9.25;;;6.75;;
51854;SDS011;37895;53.240;6.572;2024-03-02T02:07:18;7.50;;;6.80;;
51854;SDS011;37895;53.240;6.572;2024-03-02T02:09:44;6.82;;;6.13;;
51854;SDS011;37895;53.240;6.572;2024-03-02T02:12:09;7.80;;;7.07;;
51854;SDS011;37895;53.240;6.572;2024-03-02T02:14:36;7.88;;;7.07;;
51854;SDS011;37895;53.240;6.572;2024-03-02T02:17:02;7.70;;;7.00;;
51854;SDS011;37895;53.240;6.572;2024-03-02T02:19:27;8.10;;;6.68;;
51854;SDS011;37895;53.240;6.572;2024-03-02T02:21:53;8.35;;;6.90;;
51854;SDS011;37895;53.240;6.572;2024-03-02T02:24:19;7.63;;;6.93;;
51854;SDS011;37895;53.240;6.572;2024-03-02T02:26:45;7.25;;;6.55;;
51854;SDS011;37895;53.240;6.572;2024-03-02T02:29:11;6.93;;;6.22;;
51854;SDS011;37895;53.240;6.572;2024-03-02T02:31:37;7.45;;;6.75;;
51854;SDS011;37895;53.240;6.572;2024-03-02T02:34:06;9.30;;;7.03;;
51854;SDS011;37895;53.240;6.572;2024-03-02T02:36:33;6.65;;;6.00;;
51854;SDS011;37895;53.240;6.572;2024-03-02T02:39:00;6.90;;;6.25;;
51854;SDS011;37895;53.240;6.572;2024-03-02T02:41:32;7.40;;;6.63;;
51854;SDS011;37895;53.240;6.572;2024-03-02T02:43:57;6.55;;;5.95;;
51854;SDS011;37895;53.240;6.572;2024-03-02T02:46:23;6.45;;;5.88;;
51854;SDS011;37895;53.240;6.572;2024-03-02T02:48:48;9.60;;;6.57;;
51854;SDS011;37895;53.240;6.572;2024-03-02T02:51:16;6.95;;;6.35;;
51854;SDS011;37895;53.240;6.572;2024-03-02T02:53:42;6.50;;;5.90;;
51854;SDS011;37895;53.240;6.572;2024-03-02T02:56:07;6.80;;;6.10;;
51854;SDS011;37895;53.240;6.572;2024-03-02T02:58:33;6.82;;;6.22;;
51854;SDS011;37895;53.240;6.572;2024-03-02T03:00:59;6.45;;;5.82;;
51854;SDS011;37895;53.240;6.572;2024-03-02T03:03:24;6.50;;;5.85;;
51854;SDS011;37895;53.240;6.572;2024-03-02T03:05:50;6.50;;;5.80;;
51854;SDS011;37895;53.240;6.572;2024-03-02T03:08:15;7.18;;;6.47;;
51854;SDS011;37895;53.240;6.572;2024-03-02T03:10:41;6.18;;;5.45;;
51854;SDS011;37895;53.240;6.572;2024-03-02T03:13:07;6.18;;;5.53;;
51854;SDS011;37895;53.240;6.572;2024-03-02T03:15:34;5.93;;;5.40;;
51854;SDS011;37895;53.240;6.572;2024-03-02T03:18:01;5.70;;;5.10;;
51854;SDS011;37895;53.240;6.572;2024-03-02T03:20:30;5.38;;;4.88;;
51854;SDS011;37895;53.240;6.572;2024-03-02T03:22:56;4.97;;;4.55;;
51854;SDS011;37895;53.240;6.572;2024-03-02T03:25:22;6.70;;;4.70;;
51854;SDS011;37895;53.240;6.572;2024-03-02T03:27:48;4.70;;;4.30;;
51854;SDS011;37895;53.240;6.572;2024-03-02T03:30:13;5.43;;;4.82;;
51854;SDS011;37895;53.240;6.572;2024-03-02T03:32:39;4.82;;;4.32;;
51854;SDS011;37895;53.240;6.572;2024-03-02T03:37:31;4.93;;;4.43;;
51854;SDS011;37895;53.240;6.572;2024-03-02T03:40:01;4.63;;;4.10;;
51854;SDS011;37895;53.240;6.572;2024-03-02T03:42:27;5.10;;;4.60;;
51854;SDS011;37895;53.240;6.572;2024-03-02T03:44:53;4.90;;;4.50;;
51854;SDS011;37895;53.240;6.572;2024-03-02T03:47:19;6.03;;;4.55;;
51854;SDS011;37895;53.240;6.572;2024-03-02T03:49:45;5.10;;;4.60;;
51854;SDS011;37895;53.240;6.572;2024-03-02T03:52:11;4.80;;;4.32;;
51854;SDS011;37895;53.240;6.572;2024-03-02T03:54:36;5.45;;;4.60;;
51854;SDS011;37895;53.240;6.572;2024-03-02T03:57:03;4.90;;;4.50;;
51854;SDS011;37895;53.240;6.572;2024-03-02T03:59:29;4.95;;;4.45;;
51854;SDS011;37895;53.240;6.572;2024-03-02T04:01:55;4.30;;;3.97;;
51854;SDS011;37895;53.240;6.572;2024-03-02T04:04:21;5.30;;;4.80;;
51854;SDS011;37895;53.240;6.572;2024-03-02T04:06:47;5.30;;;4.80;;
51854;SDS011;37895;53.240;6.572;2024-03-02T04:09:12;6.38;;;4.90;;
51854;SDS011;37895;53.240;6.572;2024-03-02T04:11:38;5.10;;;4.45;;
51854;SDS011;37895;53.240;6.572;2024-03-02T04:14:04;5.50;;;5.00;;
51854;SDS011;37895;53.240;6.572;2024-03-02T04:16:31;5.05;;;4.55;;
51854;SDS011;37895;53.240;6.572;2024-03-02T04:18:56;6.95;;;5.00;;
51854;SDS011;37895;53.240;6.572;2024-03-02T04:21:22;6.97;;;4.88;;
51854;SDS011;37895;53.240;6.572;2024-03-02T04:23:48;4.63;;;4.22;;
51854;SDS011;37895;53.240;6.572;2024-03-02T04:26:14;5.10;;;4.50;;
51854;SDS011;37895;53.240;6.572;2024-03-02T04:31:05;5.22;;;4.72;;
51854;SDS011;37895;53.240;6.572;2024-03-02T04:33:31;4.78;;;4.38;;
51854;SDS011;37895;53.240;6.572;2024-03-02T04:35:56;5.00;;;4.50;;
51854;SDS011;37895;53.240;6.572;2024-03-02T04:38:22;5.18;;;4.68;;
51854;SDS011;37895;53.240;6.572;2024-03-02T04:40:48;6.13;;;4.75;;
51854;SDS011;37895;53.240;6.572;2024-03-02T04:43:14;5.35;;;4.85;;
51854;SDS011;37895;53.240;6.572;2024-03-02T04:45:41;5.15;;;4.68;;
51854;SDS011;37895;53.240;6.572;2024-03-02T04:48:07;5.10;;;4.60;;
51854;SDS011;37895;53.240;6.572;2024-03-02T04:50:33;4.90;;;4.38;;
51854;SDS011;37895;53.240;6.572;2024-03-02T04:52:59;5.22;;;4.72;;
51854;SDS011;37895;53.240;6.572;2024-03-02T04:55:24;6.00;;;5.07;;
51854;SDS011;37895;53.240;6.572;2024-03-02T04:58:10;4.40;;;4.00;;
51854;SDS011;37895;53.240;6.572;2024-03-02T05:00:35;5.45;;;4.95;;
51854;SDS011;37895;53.240;6.572;2024-03-02T05:03:01;4.97;;;4.38;;
51854;SDS011;37895;53.240;6.572;2024-03-02T05:05:27;5.05;;;4.65;;
51854;SDS011;37895;53.240;6.572;2024-03-02T05:07:53;5.30;;;4.80;;
51854;SDS011;37895;53.240;6.572;2024-03-02T05:10:19;4.87;;;4.47;;
51854;SDS011;37895;53.240;6.572;2024-03-02T05:12:44;6.00;;;5.03;;
51854;SDS011;37895;53.240;6.572;2024-03-02T05:15:11;5.88;;;5.28;;
51854;SDS011;37895;53.240;6.572;2024-03-02T05:17:38;5.18;;;4.68;;
51854;SDS011;37895;53.240;6.572;2024-03-02T05:20:04;6.60;;;4.70;;
51854;SDS011;37895;53.240;6.572;2024-03-02T05:22:31;5.93;;;4.70;;
51854;SDS011;37895;53.240;6.572;2024-03-02T05:24:56;5.35;;;4.90;;
51854;SDS011;37895;53.240;6.572;2024-03-02T05:27:24;5.03;;;4.53;;
51854;SDS011;37895;53.240;6.572;2024-03-02T05:29:49;5.05;;;4.55;;
51854;SDS011;37895;53.240;6.572;2024-03-02T05:32:15;6.13;;;4.97;;
51854;SDS011;37895;53.240;6.572;2024-03-02T05:34:40;5.13;;;4.72;;
51854;SDS011;37895;53.240;6.572;2024-03-02T05:37:06;5.07;;;4.57;;
51854;SDS011;37895;53.240;6.572;2024-03-02T05:39:32;5.25;;;4.75;;
51854;SDS011;37895;53.240;6.572;2024-03-02T05:41:57;5.95;;;4.70;;
51854;SDS011;37895;53.240;6.572;2024-03-02T05:44:23;6.80;;;5.05;;
51854;SDS011;37895;53.240;6.572;2024-03-02T05:46:49;5.82;;;5.32;;
51854;SDS011;37895;53.240;6.572;2024-03-02T05:49:14;5.57;;;4.97;;
51854;SDS011;37895;53.240;6.572;2024-03-02T05:51:40;5.13;;;4.68;;
51854;SDS011;37895;53.240;6.572;2024-03-02T05:56:32;5.50;;;4.40;;
51854;SDS011;37895;53.240;6.572;2024-03-02T05:58:57;5.50;;;5.00;;
51854;SDS011;37895;53.240;6.572;2024-03-02T06:01:42;6.22;;;5.00;;
51854;SDS011;37895;53.240;6.572;2024-03-02T06:04:11;5.95;;;5.35;;
51854;SDS011;37895;53.240;6.572;2024-03-02T06:06:38;5.40;;;4.70;;
51854;SDS011;37895;53.240;6.572;2024-03-02T06:09:04;5.28;;;4.78;;
51854;SDS011;37895;53.240;6.572;2024-03-02T06:11:33;6.13;;;4.78;;
51854;SDS011;37895;53.240;6.572;2024-03-02T06:14:02;5.47;;;4.97;;
51854;SDS011;37895;53.240;6.572;2024-03-02T06:16:28;4.93;;;4.43;;
51854;SDS011;37895;53.240;6.572;2024-03-02T06:18:54;5.18;;;4.13;;
51854;SDS011;37895;53.240;6.572;2024-03-02T06:21:22;5.70;;;5.20;;
51854;SDS011;37895;53.240;6.572;2024-03-02T06:23:51;5.47;;;4.85;;
51854;SDS011;37895;53.240;6.572;2024-03-02T06:26:17;5.03;;;4.53;;
51854;SDS011;37895;53.240;6.572;2024-03-02T06:28:43;5.00;;;4.60;;
51854;SDS011;37895;53.240;6.572;2024-03-02T06:33:35;4.95;;;4.55;;
51854;SDS011;37895;53.240;6.572;2024-03-02T06:36:01;5.50;;;5.00;;
51854;SDS011;37895;53.240;6.572;2024-03-02T06:38:27;5.25;;;4.75;;
51854;SDS011;37895;53.240;6.572;2024-03-02T06:40:53;5.38;;;4.88;;
51854;SDS011;37895;53.240;6.572;2024-03-02T06:43:20;6.28;;;5.05;;
51854;SDS011;37895;53.240;6.572;2024-03-02T06:45:48;5.32;;;4.82;;
51854;SDS011;37895;53.240;6.572;2024-03-02T06:48:14;5.13;;;4.63;;
51854;SDS011;37895;53.240;6.572;2024-03-02T06:50:44;5.20;;;4.57;;
51854;SDS011;37895;53.240;6.572;2024-03-02T06:53:13;4.95;;;4.40;;
51854;SDS011;37895;53.240;6.572;2024-03-02T06:55:42;6.45;;;4.80;;
51854;SDS011;37895;53.240;6.572;2024-03-02T06:58:09;5.20;;;4.70;;
51854;SDS011;37895;53.240;6.572;2024-03-02T07:00:36;5.80;;;4.60;;
51854;SDS011;37895;53.240;6.572;2024-03-02T07:03:01;4.95;;;4.43;;
51854;SDS011;37895;53.240;6.572;2024-03-02T07:05:27;4.90;;;4.40;;
51854;SDS011;37895;53.240;6.572;2024-03-02T07:07:53;5.07;;;4.45;;
51854;SDS011;37895;53.240;6.572;2024-03-02T07:10:18;5.78;;;4.70;;
51854;SDS011;37895;53.240;6.572;2024-03-02T07:12:44;4.50;;;4.10;;
51854;SDS011;37895;53.240;6.572;2024-03-02T07:15:09;4.53;;;4.13;;
51854;SDS011;37895;53.240;6.572;2024-03-02T07:17:58;4.30;;;3.90;;
51854;SDS011;37895;53.240;6.572;2024-03-02T07:20:23;4.70;;;4.20;;
51854;SDS011;37895;53.240;6.572;2024-03-02T07:22:49;4.40;;;4.00;;
51854;SDS011;37895;53.240;6.572;2024-03-02T07:25:15;5.25;;;4.20;;
51854;SDS011;37895;53.240;6.572;2024-03-02T07:27:40;4.13;;;3.72;;
51854;SDS011;37895;53.240;6.572;2024-03-02T07:30:06;3.58;;;3.25;;
51854;SDS011;37895;53.240;6.572;2024-03-02T07:32:32;4.18;;;3.60;;
51854;SDS011;37895;53.240;6.572;2024-03-02T07:34:58;4.15;;;3.80;;
51854;SDS011;37895;53.240;6.572;2024-03-02T07:37:23;4.10;;;3.72;;
51854;SDS011;37895;53.240;6.572;2024-03-02T07:39:49;4.10;;;3.60;;
51854;SDS011;37895;53.240;6.572;2024-03-02T07:42:16;6.03;;;4.18;;
51854;SDS011;37895;53.240;6.572;2024-03-02T07:44:41;4.72;;;4.25;;
51854;SDS011;37895;53.240;6.572;2024-03-02T07:47:09;4.82;;;4.32;;
51854;SDS011;37895;53.240;6.572;2024-03-02T07:49:35;4.75;;;4.32;;
51854;SDS011;37895;53.240;6.572;2024-03-02T07:52:00;5.40;;;4.60;;
51854;SDS011;37895;53.240;6.572;2024-03-02T07:54:26;4.90;;;4.43;;
51854;SDS011;37895;53.240;6.572;2024-03-02T07:56:51;5.40;;;4.90;;
51854;SDS011;37895;53.240;6.572;2024-03-02T07:59:17;5.50;;;5.00;;
51854;SDS011;37895;53.240;6.572;2024-03-02T08:01:43;5.78;;;5.28;;
51854;SDS011;37895;53.240;6.572;2024-03-02T08:04:09;6.45;;;5.60;;
51854;SDS011;37895;53.240;6.572;2024-03-02T08:06:34;7.95;;;6.95;;
51854;SDS011;37895;53.240;6.572;2024-03-02T08:09:00;5.55;;;5.05;;
51854;SDS011;37895;53.240;6.572;2024-03-02T08:11:26;5.72;;;5.22;;
51854;SDS011;37895;53.240;6.572;2024-03-02T08:13:52;5.05;;;4.10;;
51854;SDS011;37895;53.240;6.572;2024-03-02T08:16:19;4.78;;;4.38;;
51854;SDS011;37895;53.240;6.572;2024-03-02T08:18:47;4.75;;;4.35;;
51854;SDS011;37895;53.240;6.572;2024-03-02T08:21:13;4.93;;;4.07;;
51854;SDS011;37895;53.240;6.572;2024-03-02T08:23:39;4.68;;;4.10;;
51854;SDS011;37895;53.240;6.572;2024-03-02T08:26:06;4.85;;;4.05;;
51854;SDS011;37895;53.240;6.572;2024-03-02T08:30:58;4.30;;;3.90;;
51854;SDS011;37895;53.240;6.572;2024-03-02T08:33:23;3.95;;;3.55;;
51854;SDS011;37895;53.240;6.572;2024-03-02T08:35:49;5.13;;;3.78;;
51854;SDS011;37895;53.240;6.572;2024-03-02T08:38:15;4.10;;;3.70;;
51854;SDS011;37895;53.240;6.572;2024-03-02T08:40:41;4.53;;;3.70;;
51854;SDS011;37895;53.240;6.572;2024-03-02T08:43:06;4.25;;;3.85;;
51854;SDS011;37895;53.240;6.572;2024-03-02T08:45:32;3.58;;;3.28;;
51854;SDS011;37895;53.240;6.572;2024-03-02T08:47:59;4.03;;;3.72;;
51854;SDS011;37895;53.240;6.572;2024-03-02T08:50:25;5.45;;;4.13;;
51854;SDS011;37895;53.240;6.572;2024-03-02T08:52:51;3.90;;;3.50;;
51854;SDS011;37895;53.240;6.572;2024-03-02T08:55:16;3.70;;;3.40;;
51854;SDS011;37895;53.240;6.572;2024-03-02T08:57:42;3.97;;;3.15;;
51854;SDS011;37895;53.240;6.572;2024-03-02T09:00:08;3.50;;;3.20;;
51854;SDS011;37895;53.240;6.572;2024-03-02T09:05:00;3.63;;;3.30;;
51854;SDS011;37895;53.240;6.572;2024-03-02T09:07:26;3.13;;;2.83;;
51854;SDS011;37895;53.240;6.572;2024-03-02T09:09:52;3.38;;;2.90;;
51854;SDS011;37895;53.240;6.572;2024-03-02T09:12:17;2.92;;;2.50;;
51854;SDS011;37895;53.240;6.572;2024-03-02T09:14:44;4.50;;;2.92;;
51854;SDS011;37895;53.240;6.572;2024-03-02T09:17:10;6.18;;;3.28;;
51854;SDS011;37895;53.240;6.572;2024-03-02T09:22:03;4.72;;;3.25;;
51854;SDS011;37895;53.240;6.572;2024-03-02T09:24:30;3.78;;;3.30;;
51854;SDS011;37895;53.240;6.572;2024-03-02T09:26:56;3.40;;;3.10;;
51854;SDS011;37895;53.240;6.572;2024-03-02T09:29:22;3.88;;;3.13;;
51854;SDS011;37895;53.240;6.572;2024-03-02T09:31:47;3.38;;;3.08;;
51854;SDS011;37895;53.240;6.572;2024-03-02T09:34:14;4.25;;;2.88;;
51854;SDS011;37895;53.240;6.572;2024-03-02T09:39:07;3.70;;;3.30;;
51854;SDS011;37895;53.240;6.572;2024-03-02T09:41:34;4.25;;;3.30;;
51854;SDS011;37895;53.240;6.572;2024-03-02T09:44:01;3.05;;;2.75;;
51854;SDS011;37895;53.240;6.572;2024-03-02T09:46:27;5.40;;;2.70;;
51854;SDS011;37895;53.240;6.572;2024-03-02T09:48:53;5.22;;;2.63;;
51854;SDS011;37895;53.240;6.572;2024-03-02T09:51:19;3.60;;;2.80;;
51854;SDS011;37895;53.240;6.572;2024-03-02T09:53:45;3.08;;;2.72;;
51854;SDS011;37895;53.240;6.572;2024-03-02T09:56:12;4.43;;;2.78;;
51854;SDS011;37895;53.240;6.572;2024-03-02T09:58:40;4.40;;;2.70;;
51854;SDS011;37895;53.240;6.572;2024-03-02T10:01:06;3.13;;;2.15;;
51854;SDS011;37895;53.240;6.572;2024-03-02T10:03:32;2.70;;;2.50;;
51854;SDS011;37895;53.240;6.572;2024-03-02T10:08:47;4.20;;;2.40;;
51854;SDS011;37895;53.240;6.572;2024-03-02T10:11:47;3.17;;;2.83;;
51854;SDS011;37895;53.240;6.572;2024-03-02T10:14:06;4.90;;;2.75;;
51854;SDS011;37895;53.240;6.572;2024-03-02T10:16:38;3.55;;;2.60;;
51854;SDS011;37895;53.240;6.572;2024-03-02T10:21:47;4.05;;;3.17;;
51854;SDS011;37895;53.240;6.572;2024-03-02T10:24:16;2.97;;;2.50;;
51854;SDS011;37895;53.240;6.572;2024-03-02T10:26:43;3.28;;;2.65;;
51854;SDS011;37895;53.240;6.572;2024-03-02T10:29:09;3.08;;;2.50;;
51854;SDS011;37895;53.240;6.572;2024-03-02T10:34:05;3.55;;;2.50;;
51854;SDS011;37895;53.240;6.572;2024-03-02T10:36:35;4.15;;;2.83;;
51854;SDS011;37895;53.240;6.572;2024-03-02T10:39:02;4.22;;;2.40;;
51854;SDS011;37895;53.240;6.572;2024-03-02T10:41:29;3.00;;;2.40;;
51854;SDS011;37895;53.240;6.572;2024-03-02T10:44:07;4.38;;;2.55;;
51854;SDS011;37895;53.240;6.572;2024-03-02T10:46:34;2.63;;;2.40;;
51854;SDS011;37895;53.240;6.572;2024-03-02T10:49:02;3.83;;;2.60;;
51854;SDS011;37895;53.240;6.572;2024-03-02T10:51:30;3.28;;;2.67;;
51854;SDS011;37895;53.240;6.572;2024-03-02T10:53:57;2.95;;;2.40;;
51854;SDS011;37895;53.240;6.572;2024-03-02T10:56:30;3.55;;;2.40;;
51854;SDS011;37895;53.240;6.572;2024-03-02T10:59:21;4.18;;;2.50;;
51854;SDS011;37895;53.240;6.572;2024-03-02T11:01:53;2.67;;;2.25;;
51854;SDS011;37895;53.240;6.572;2024-03-02T11:04:22;5.07;;;2.60;;
51854;SDS011;37895;53.240;6.572;2024-03-02T11:06:50;3.45;;;2.63;;
51854;SDS011;37895;53.240;6.572;2024-03-02T11:09:20;5.63;;;2.70;;
51854;SDS011;37895;53.240;6.572;2024-03-02T11:11:54;3.83;;;2.50;;
51854;SDS011;37895;53.240;6.572;2024-03-02T11:14:40;3.60;;;2.28;;
51854;SDS011;37895;53.240;6.572;2024-03-02T11:17:09;3.95;;;2.75;;
51854;SDS011;37895;53.240;6.572;2024-03-02T11:19:37;3.38;;;2.45;;
51854;SDS011;37895;53.240;6.572;2024-03-02T11:22:04;3.28;;;2.47;;
51854;SDS011;37895;53.240;6.572;2024-03-02T11:27:00;2.75;;;2.45;;
51854;SDS011;37895;53.240;6.572;2024-03-02T11:32:06;2.83;;;2.63;;
51854;SDS011;37895;53.240;6.572;2024-03-02T11:34:39;4.13;;;2.60;;
51854;SDS011;37895;53.240;6.572;2024-03-02T11:37:10;3.00;;;2.40;;
51854;SDS011;37895;53.240;6.572;2024-03-02T11:39:37;4.63;;;2.70;;
51854;SDS011;37895;53.240;6.572;2024-03-02T11:42:05;2.97;;;2.67;;
51854;SDS011;37895;53.240;6.572;2024-03-02T11:44:39;3.90;;;3.00;;
51854;SDS011;37895;53.240;6.572;2024-03-02T11:47:06;4.00;;;2.40;;
51854;SDS011;37895;53.240;6.572;2024-03-02T11:52:06;2.80;;;2.50;;
51854;SDS011;37895;53.240;6.572;2024-03-02T11:54:33;4.93;;;2.67;;
51854;SDS011;37895;53.240;6.572;2024-03-02T11:57:04;3.20;;;2.47;;
51854;SDS011;37895;53.240;6.572;2024-03-02T11:59:31;3.25;;;2.70;;
51854;SDS011;37895;53.240;6.572;2024-03-02T12:01:56;2.83;;;2.53;;
51854;SDS011;37895;53.240;6.572;2024-03-02T12:04:24;3.08;;;2.72;;
51854;SDS011;37895;53.240;6.572;2024-03-02T12:06:56;2.97;;;2.60;;
51854;SDS011;37895;53.240;6.572;2024-03-02T12:09:26;2.67;;;2.47;;
51854;SDS011;37895;53.240;6.572;2024-03-02T12:12:06;3.25;;;2.60;;
51854;SDS011;37895;53.240;6.572;2024-03-02T12:14:33;4.65;;;2.70;;
51854;SDS011;37895;53.240;6.572;2024-03-02T12:17:00;4.35;;;2.78;;
51854;SDS011;37895;53.240;6.572;2024-03-02T12:21:52;3.50;;;2.70;;
51854;SDS011;37895;53.240;6.572;2024-03-02T12:24:20;2.28;;;2.08;;
51854;SDS011;37895;53.240;6.572;2024-03-02T12:26:47;3.85;;;2.10;;
51854;SDS011;37895;53.240;6.572;2024-03-02T12:29:14;2.47;;;2.05;;
51854;SDS011;37895;53.240;6.572;2024-03-02T12:34:07;6.10;;;2.38;;
51854;SDS011;37895;53.240;6.572;2024-03-02T12:39:06;3.90;;;2.50;;
51854;SDS011;37895;53.240;6.572;2024-03-02T12:41:37;4.05;;;2.90;;
51854;SDS011;37895;53.240;6.572;2024-03-02T12:44:06;4.65;;;2.60;;
51854;SDS011;37895;53.240;6.572;2024-03-02T12:46:32;3.08;;;2.78;;
51854;SDS011;37895;53.240;6.572;2024-03-02T12:48:58;2.65;;;2.45;;
51854;SDS011;37895;53.240;6.572;2024-03-02T12:51:29;2.97;;;2.50;;
51854;SDS011;37895;53.240;6.572;2024-03-02T12:53:56;2.90;;;2.58;;
51854;SDS011;37895;53.240;6.572;2024-03-02T12:56:23;2.72;;;2.47;;
51854;SDS011;37895;53.240;6.572;2024-03-02T12:58:59;4.68;;;2.70;;
51854;SDS011;37895;53.240;6.572;2024-03-02T13:01:25;3.35;;;2.83;;
51854;SDS011;37895;53.240;6.572;2024-03-02T13:03:52;3.95;;;3.10;;
51854;SDS011;37895;53.240;6.572;2024-03-02T13:06:19;3.65;;;2.92;;
51854;SDS011;37895;53.240;6.572;2024-03-02T13:11:15;5.72;;;3.40;;
51854;SDS011;37895;53.240;6.572;2024-03-02T13:13:41;3.13;;;2.83;;
51854;SDS011;37895;53.240;6.572;2024-03-02T13:16:08;4.65;;;2.90;;
51854;SDS011;37895;53.240;6.572;2024-03-02T13:18:35;4.30;;;3.45;;
51854;SDS011;37895;53.240;6.572;2024-03-02T13:21:01;4.25;;;2.65;;
51854;SDS011;37895;53.240;6.572;2024-03-02T13:23:26;3.35;;;2.90;;
51854;SDS011;37895;53.240;6.572;2024-03-02T13:25:54;4.80;;;3.20;;
51854;SDS011;37895;53.240;6.572;2024-03-02T13:28:19;3.92;;;3.30;;
51854;SDS011;37895;53.240;6.572;2024-03-02T13:30:45;5.72;;;4.10;;
51854;SDS011;37895;53.240;6.572;2024-03-02T13:33:10;5.45;;;4.00;;
51854;SDS011;37895;53.240;6.572;2024-03-02T13:35:36;4.03;;;3.67;;
51854;SDS011;37895;53.240;6.572;2024-03-02T13:38:02;6.85;;;4.32;;
51854;SDS011;37895;53.240;6.572;2024-03-02T13:40:27;4.53;;;4.10;;
51854;SDS011;37895;53.240;6.572;2024-03-02T13:42:54;5.60;;;4.78;;
51854;SDS011;37895;53.240;6.572;2024-03-02T13:45:19;5.65;;;4.30;;
51854;SDS011;37895;53.240;6.572;2024-03-02T13:47:45;5.30;;;4.45;;
51854;SDS011;37895;53.240;6.572;2024-03-02T13:50:11;5.25;;;4.75;;
51854;SDS011;37895;53.240;6.572;2024-03-02T13:52:36;5.03;;;4.40;;
51854;SDS011;37895;53.240;6.572;2024-03-02T13:55:02;4.50;;;4.10;;
51854;SDS011;37895;53.240;6.572;2024-03-02T13:57:28;4.50;;;4.10;;
51854;SDS011;37895;53.240;6.572;2024-03-02T13:59:53;4.80;;;4.20;;
51854;SDS011;37895;53.240;6.572;2024-03-02T14:02:19;5.18;;;4.60;;
51854;SDS011;37895;53.240;6.572;2024-03-02T14:04:45;4.72;;;4.20;;
51854;SDS011;37895;53.240;6.572;2024-03-02T14:07:14;4.57;;;4.18;;
51854;SDS011;37895;53.240;6.572;2024-03-02T14:09:40;4.70;;;4.20;;
51854;SDS011;37895;53.240;6.572;2024-03-02T14:12:05;4.70;;;4.25;;
51854;SDS011;37895;53.240;6.572;2024-03-02T14:16:57;4.43;;;3.67;;
51854;SDS011;37895;53.240;6.572;2024-03-02T14:19:29;4.40;;;3.97;;
51854;SDS011;37895;53.240;6.572;2024-03-02T14:24:21;6.25;;;3.42;;
51854;SDS011;37895;53.240;6.572;2024-03-02T14:26:51;5.47;;;3.80;;
51854;SDS011;37895;53.240;6.572;2024-03-02T14:29:17;4.03;;;3.33;;
51854;SDS011;37895;53.240;6.572;2024-03-02T14:31:43;3.97;;;3.58;;
51854;SDS011;37895;53.240;6.572;2024-03-02T14:34:12;6.95;;;3.45;;
51854;SDS011;37895;53.240;6.572;2024-03-02T14:36:39;3.78;;;3.20;;
51854;SDS011;37895;53.240;6.572;2024-03-02T14:39:04;4.10;;;3.30;;
51854;SDS011;37895;53.240;6.572;2024-03-02T14:41:34;5.03;;;3.22;;
51854;SDS011;37895;53.240;6.572;2024-03-02T14:43:59;4.68;;;3.72;;
51854;SDS011;37895;53.240;6.572;2024-03-02T14:46:25;5.55;;;3.50;;
51854;SDS011;37895;53.240;6.572;2024-03-02T14:48:51;3.80;;;3.30;;
51854;SDS011;37895;53.240;6.572;2024-03-02T14:51:16;4.38;;;3.33;;
51854;SDS011;37895;53.240;6.572;2024-03-02T14:53:42;4.75;;;3.10;;
51854;SDS011;37895;53.240;6.572;2024-03-02T14:56:07;3.92;;;3.00;;
51854;SDS011;37895;53.240;6.572;2024-03-02T14:58:33;3.92;;;3.03;;
51854;SDS011;37895;53.240;6.572;2024-03-02T15:01:00;4.43;;;3.28;;
51854;SDS011;37895;53.240;6.572;2024-03-02T15:03:26;8.35;;;3.88;;
51854;SDS011;37895;53.240;6.572;2024-03-02T15:05:51;4.82;;;3.60;;
51854;SDS011;37895;53.240;6.572;2024-03-02T15:08:18;5.55;;;3.80;;
51854;SDS011;37895;53.240;6.572;2024-03-02T15:10:44;6.60;;;4.28;;
51854;SDS011;37895;53.240;6.572;2024-03-02T15:13:10;6.05;;;4.30;;
51854;SDS011;37895;53.240;6.572;2024-03-02T15:18:01;4.53;;;3.50;;
51854;SDS011;37895;53.240;6.572;2024-03-02T15:20:29;5.28;;;4.00;;
51854;SDS011;37895;53.240;6.572;2024-03-02T15:22:54;4.50;;;3.72;;
51854;SDS011;37895;53.240;6.572;2024-03-02T15:25:20;4.25;;;3.85;;
51854;SDS011;37895;53.240;6.572;2024-03-02T15:27:45;4.18;;;3.78;;
51854;SDS011;37895;53.240;6.572;2024-03-02T15:30:11;3.78;;;3.45;;
51854;SDS011;37895;53.240;6.572;2024-03-02T15:32:37;4.78;;;3.72;;
51854;SDS011;37895;53.240;6.572;2024-03-02T15:35:04;4.30;;;3.72;;
51854;SDS011;37895;53.240;6.572;2024-03-02T15:37:30;6.35;;;3.90;;
51854;SDS011;37895;53.240;6.572;2024-03-02T15:39:56;4.13;;;3.63;;
51854;SDS011;37895;53.240;6.572;2024-03-02T15:42:22;4.75;;;3.90;;
51854;SDS011;37895;53.240;6.572;2024-03-02T15:44:50;4.43;;;4.03;;
51854;SDS011;37895;53.240;6.572;2024-03-02T15:47:18;4.45;;;3.50;;